createdAt,value
2018-12-31T00:01:06.490Z,4.1
2018-12-31T00:06:33.046Z,4.1
2018-12-31T00:11:59.802Z,4.1
2018-12-31T00:17:27.504Z,4.1
2018-12-31T00:22:55.175Z,4.1
2018-12-31T00:28:21.883Z,4.1
2018-12-31T00:33:49.547Z,4.1
2018-12-31T00:39:16.306Z,4
2018-12-31T00:44:42.962Z,4
2018-12-31T00:50:10.715Z,4
2018-12-31T00:55:37.418Z,3.9
2018-12-31T01:01:04.101Z,3.9
2018-12-31T01:06:31.764Z,3.9
2018-12-31T01:11:58.480Z,3.9
2018-12-31T01:22:53.892Z,3.9
2018-12-31T01:28:21.595Z,4
2018-12-31T01:33:49.272Z,4
2018-12-31T01:39:17.122Z,4
2018-12-31T01:44:43.797Z,4
2018-12-31T01:50:10.454Z,4
2018-12-31T01:55:38.146Z,4
2018-12-31T02:01:05.789Z,4.1
2018-12-31T02:06:32.515Z,4.1
2018-12-31T02:11:59.199Z,4.1
2018-12-31T02:17:26.928Z,4.2
2018-12-31T02:22:53.636Z,4.2
2018-12-31T02:28:21.330Z,4.2
2018-12-31T02:33:48.089Z,4.3
2018-12-31T02:39:14.767Z,4.3
2018-12-31T02:44:41.519Z,4.4
2018-12-31T02:50:09.241Z,4.4
2018-12-31T02:55:37.104Z,4.4
2018-12-31T03:01:03.742Z,4.4
2018-12-31T03:06:30.490Z,4.4
2018-12-31T03:11:58.314Z,4.4
2018-12-31T03:17:26.177Z,4.4
2018-12-31T03:22:53.687Z,4.5
2018-12-31T03:28:20.369Z,4.5
2018-12-31T03:33:47.070Z,4.5
2018-12-31T03:39:14.853Z,4.5
2018-12-31T03:44:42.607Z,4.6
2018-12-31T03:50:10.327Z,4.6
2018-12-31T03:55:37.124Z,4.6
2018-12-31T04:01:04.794Z,4.7
2018-12-31T04:06:31.922Z,4.7
2018-12-31T04:11:59.339Z,4.7
2018-12-31T04:17:27.084Z,4.7
2018-12-31T04:22:55.104Z,4.7
2018-12-31T04:28:22.552Z,4.8
2018-12-31T04:33:49.303Z,4.8
2018-12-31T04:39:16.225Z,4.8
2018-12-31T04:44:42.909Z,4.9
2018-12-31T04:50:09.578Z,4.9
2018-12-31T04:55:43.953Z,4.9
2018-12-31T05:01:03.197Z,5
2018-12-31T05:06:29.973Z,5
2018-12-31T05:11:57.703Z,5
2018-12-31T05:17:24.449Z,5
2018-12-31T05:22:51.321Z,5
2018-12-31T05:28:18.146Z,5.1
2018-12-31T05:33:44.793Z,5.1
2018-12-31T05:39:12.634Z,5.1
2018-12-31T05:44:39.352Z,5.2
2018-12-31T05:50:07.234Z,5.2
2018-12-31T05:55:34.239Z,5.3
2018-12-31T06:01:01.780Z,5.3
2018-12-31T06:06:29.545Z,5.3
2018-12-31T06:11:56.419Z,5.4
2018-12-31T06:17:23.212Z,5.4
2018-12-31T06:22:49.973Z,5.4
2018-12-31T06:28:17.808Z,5.5
2018-12-31T06:33:44.631Z,5.5
2018-12-31T06:39:11.424Z,5.5
2018-12-31T06:44:38.340Z,5.6
2018-12-31T06:50:06.023Z,5.6
2018-12-31T06:55:33.876Z,5.6
2018-12-31T07:01:01.675Z,5.6
2018-12-31T07:06:29.470Z,5.7
2018-12-31T07:11:57.304Z,5.7
2018-12-31T07:17:24.228Z,5.7
2018-12-31T07:22:52.042Z,5.7
2018-12-31T07:28:19.819Z,5.8
2018-12-31T07:33:46.658Z,5.8
2018-12-31T07:39:13.794Z,5.8
2018-12-31T07:44:41.309Z,5.8
2018-12-31T07:50:13.779Z,5.8
2018-12-31T08:01:04.815Z,5.9
2018-12-31T08:06:31.673Z,5.9
2018-12-31T08:11:58.565Z,6
2018-12-31T08:17:25.324Z,6
2018-12-31T08:22:52.138Z,6
2018-12-31T08:28:19.960Z,6
2018-12-31T08:33:47.844Z,6
2018-12-31T08:39:14.703Z,6.1
2018-12-31T08:44:41.562Z,6.1
2018-12-31T08:50:08.433Z,6.1
2018-12-31T08:55:35.314Z,6.2
2018-12-31T09:01:02.202Z,6.2
2018-12-31T09:06:30.025Z,6.3
2018-12-31T09:11:57.065Z,6.3
2018-12-31T09:17:24.758Z,6.4
2018-12-31T09:22:51.639Z,6.4
2018-12-31T09:28:19.530Z,6.4
2018-12-31T09:33:47.486Z,6.5
2018-12-31T09:39:15.327Z,6.5
2018-12-31T09:44:42.176Z,6.5
2018-12-31T09:50:09.109Z,6.5
2018-12-31T09:55:35.973Z,6.6
2018-12-31T10:01:03.856Z,6.6
2018-12-31T10:06:30.856Z,6.7
2018-12-31T10:11:58.699Z,6.7
2018-12-31T10:17:25.573Z,6.7
2018-12-31T10:22:52.498Z,6.8
2018-12-31T10:28:20.504Z,6.8
2018-12-31T10:33:47.335Z,6.9
2018-12-31T10:39:14.267Z,6.9
2018-12-31T10:44:41.183Z,7
2018-12-31T10:50:08.072Z,7.1
2018-12-31T10:55:35.050Z,7.1
2018-12-31T11:01:01.963Z,7.2
2018-12-31T11:06:29.932Z,7.2
2018-12-31T11:11:57.803Z,7.2
2018-12-31T11:17:25.811Z,7.2
2018-12-31T11:22:53.716Z,7.2
2018-12-31T11:28:21.742Z,7.3
2018-12-31T11:33:48.787Z,7.3
2018-12-31T11:39:16.610Z,7.3
2018-12-31T11:44:43.524Z,7.3
2018-12-31T11:50:10.705Z,7.4
2018-12-31T11:55:37.475Z,7.4
2018-12-31T12:01:05.488Z,7.5
2018-12-31T12:06:32.430Z,7.5
2018-12-31T12:12:00.454Z,7.6
2018-12-31T12:17:28.334Z,7.6
2018-12-31T12:22:55.379Z,7.6
2018-12-31T12:28:22.283Z,7.6
2018-12-31T12:33:50.249Z,7.6
2018-12-31T12:39:17.284Z,7.6
2018-12-31T12:44:44.279Z,7.6
2018-12-31T12:50:12.239Z,7.7
2018-12-31T12:55:40.140Z,7.7
2018-12-31T13:01:07.160Z,7.6
2018-12-31T13:06:35.177Z,7.6
2018-12-31T13:12:02.078Z,7.5
2018-12-31T13:17:29.090Z,7.4
2018-12-31T13:22:55.983Z,7.4
2018-12-31T13:28:22.934Z,7.3
2018-12-31T13:33:49.869Z,7.2
2018-12-31T13:39:16.990Z,7.2
2018-12-31T13:44:44.848Z,7.1
2018-12-31T13:50:12.671Z,7.1
2018-12-31T13:55:45.692Z,7
2018-12-31T14:01:08.502Z,7
2018-12-31T14:06:36.434Z,6.9
2018-12-31T14:12:03.406Z,6.9
2018-12-31T14:17:30.297Z,6.9
2018-12-31T14:22:58.232Z,6.9
2018-12-31T14:28:25.119Z,6.9
2018-12-31T14:33:53.095Z,6.9
2018-12-31T14:39:20.989Z,6.9
2018-12-31T14:44:48.008Z,6.9
2018-12-31T14:50:15.801Z,7
2018-12-31T14:55:42.699Z,7
2018-12-31T15:01:09.597Z,7
2018-12-31T15:06:37.525Z,7
2018-12-31T15:12:04.439Z,7
2018-12-31T15:17:32.429Z,7
2018-12-31T15:22:59.335Z,7
2018-12-31T15:28:27.263Z,6.9
2018-12-31T15:33:54.137Z,6.9
2018-12-31T15:39:21.030Z,6.9
2018-12-31T15:44:47.901Z,6.9
2018-12-31T15:50:16.985Z,6.9
2018-12-31T15:55:42.730Z,6.9
2018-12-31T16:01:09.648Z,6.9
2018-12-31T16:06:36.511Z,6.9
2018-12-31T16:12:03.831Z,7
2018-12-31T16:17:31.448Z,7
2018-12-31T16:22:59.232Z,7
2018-12-31T16:28:26.213Z,7
2018-12-31T16:33:54.061Z,7
2018-12-31T16:39:21.986Z,7
2018-12-31T16:44:49.887Z,7.1
2018-12-31T16:50:16.796Z,7.1
2018-12-31T16:55:43.708Z,7.1
2018-12-31T17:01:10.624Z,7.1
2018-12-31T17:06:37.550Z,7.1
2018-12-31T17:12:04.510Z,7.1
2018-12-31T17:17:32.438Z,7.1
2018-12-31T17:22:59.337Z,7.1
2018-12-31T17:28:27.571Z,7.1
2018-12-31T17:33:55.210Z,7.1
2018-12-31T17:39:22.118Z,7.1
2018-12-31T17:50:15.960Z,7.1
2018-12-31T17:55:42.890Z,7.2
2018-12-31T18:01:10.813Z,7.2
2018-12-31T18:06:37.846Z,7.2
2018-12-31T18:12:05.649Z,7.2
2018-12-31T18:17:32.599Z,7.2
2018-12-31T18:23:00.578Z,7.2
2018-12-31T18:28:28.490Z,7.3
2018-12-31T18:33:55.439Z,7.3
2018-12-31T18:39:22.414Z,7.3
2018-12-31T18:44:50.404Z,7.3
2018-12-31T18:50:17.269Z,7.3
2018-12-31T18:55:45.227Z,7.2
2018-12-31T19:01:12.189Z,7.2
2018-12-31T19:06:40.102Z,7.2
2018-12-31T19:12:07.022Z,7.1
2018-12-31T19:17:35.050Z,7.1
2018-12-31T19:23:01.871Z,7.1
2018-12-31T19:28:28.809Z,7.1
2018-12-31T19:33:55.733Z,7.1
2018-12-31T19:39:22.825Z,7.1
2018-12-31T19:44:49.593Z,7.1
2018-12-31T19:50:16.561Z,7.1
2018-12-31T19:55:43.393Z,7.1
2018-12-31T20:01:10.317Z,7.1
2018-12-31T20:06:38.229Z,7.1
2018-12-31T20:12:06.130Z,7.1
2018-12-31T20:17:33.054Z,7.1
2018-12-31T20:23:01.085Z,7
2018-12-31T20:28:28.927Z,7
2018-12-31T20:33:55.867Z,7
2018-12-31T20:39:22.779Z,7
2018-12-31T20:44:50.685Z,7
2018-12-31T20:50:18.605Z,7
2018-12-31T20:55:46.550Z,7
2018-12-31T21:01:14.448Z,7
2018-12-31T21:06:41.433Z,7
2018-12-31T21:12:08.274Z,7
2018-12-31T21:17:36.184Z,7
2018-12-31T21:23:04.144Z,7
2018-12-31T21:28:32.022Z,7
2018-12-31T21:33:59.915Z,7
2018-12-31T21:39:26.890Z,7
2018-12-31T21:44:54.777Z,6.9
2018-12-31T21:50:22.657Z,6.9
2018-12-31T21:55:49.586Z,7
2018-12-31T22:01:16.475Z,7
2018-12-31T22:06:43.411Z,7
2018-12-31T22:12:10.389Z,7
2018-12-31T22:17:38.215Z,7
2018-12-31T22:23:05.178Z,7
2018-12-31T22:28:32.057Z,7
2018-12-31T22:33:58.976Z,7
2018-12-31T22:39:26.891Z,7
2018-12-31T22:44:53.805Z,7
2018-12-31T22:50:20.735Z,7
2018-12-31T22:55:48.673Z,7
2018-12-31T23:01:16.618Z,7
2018-12-31T23:06:44.469Z,7
2018-12-31T23:12:11.410Z,7
2018-12-31T23:17:39.335Z,7
2018-12-31T23:23:06.294Z,7
2018-12-31T23:28:34.104Z,7
2018-12-31T23:34:02.019Z,7
2018-12-31T23:39:28.967Z,7
2018-12-31T23:44:55.880Z,7
2018-12-31T23:50:22.779Z,7
2018-12-31T23:55:50.697Z,7
